sensor_id;sensor_type;location;lat;lon;timestamp;P1;durP1;ratioP1;P2;durP2;ratioP2
26582;SDS011;14230;45.382;10.998;2023-04-01T00:01:05;64.30;;;41.85;;
26582;SDS011;14230;45.382;10.998;2023-04-01T00:03:38;74.97;;;43.83;;
26582;SDS011;14230;45.382;10.998;2023-04-01T00:06:06;76.43;;;44.13;;
26582;SDS011;14230;45.382;10.998;2023-04-01T00:08:34;81.65;;;44.42;;
26582;SDS011;14230;45.382;10.998;2023-04-01T00:11:03;80.28;;;46.30;;
26582;SDS011;14230;45.382;10.998;2023-04-01T00:13:30;67.72;;;45.22;;
26582;SDS011;14230;45.382;10.998;2023-04-01T00:15:58;67.25;;;43.20;;
26582;SDS011;14230;45.382;10.998;2023-04-01T00:18:26;68.60;;;42.00;;
26582;SDS011;14230;45.382;10.998;2023-04-01T00:20:53;69.70;;;42.53;;
26582;SDS011;14230;45.382;10.998;2023-04-01T00:23:21;68.53;;;39.78;;
26582;SDS011;14230;45.382;10.998;2023-04-01T00:25:49;64.40;;;42.28;;
26582;SDS011;14230;45.382;10.998;2023-04-01T00:28:17;70.63;;;44.72;;
26582;SDS011;14230;45.382;10.998;2023-04-01T00:30:46;79.47;;;45.17;;
26582;SDS011;14230;45.382;10.998;2023-04-01T00:33:14;72.45;;;45.97;;
26582;SDS011;14230;45.382;10.998;2023-04-01T00:35:43;76.70;;;47.22;;
26582;SDS011;14230;45.382;10.998;2023-04-01T00:38:11;86.75;;;52.50;;
26582;SDS011;14230;45.382;10.998;2023-04-01T00:40:40;75.13;;;46.90;;
26582;SDS011;14230;45.382;10.998;2023-04-01T00:43:10;73.28;;;46.00;;
26582;SDS011;14230;45.382;10.998;2023-04-01T00:45:42;72.47;;;44.20;;
26582;SDS011;14230;45.382;10.998;2023-04-01T00:48:11;68.53;;;43.15;;
26582;SDS011;14230;45.382;10.998;2023-04-01T00:50:43;62.90;;;41.92;;
26582;SDS011;14230;45.382;10.998;2023-04-01T00:53:17;77.10;;;46.28;;
26582;SDS011;14230;45.382;10.998;2023-04-01T00:55:51;69.70;;;43.40;;
26582;SDS011;14230;45.382;10.998;2023-04-01T00:58:24;69.18;;;42.50;;
26582;SDS011;14230;45.382;10.998;2023-04-01T01:03:25;80.13;;;46.50;;
26582;SDS011;14230;45.382;10.998;2023-04-01T01:12:01;82.43;;;48.65;;
26582;SDS011;14230;45.382;10.998;2023-04-01T01:28:44;88.07;;;53.15;;
26582;SDS011;14230;45.382;10.998;2023-04-01T01:31:33;81.22;;;51.05;;
26582;SDS011;14230;45.382;10.998;2023-04-01T01:36:48;87.57;;;56.05;;
26582;SDS011;14230;45.382;10.998;2023-04-01T01:39:23;96.75;;;56.95;;
26582;SDS011;14230;45.382;10.998;2023-04-01T01:41:56;102.22;;;57.38;;
26582;SDS011;14230;45.382;10.998;2023-04-01T01:44:28;83.35;;;52.47;;
26582;SDS011;14230;45.382;10.998;2023-04-01T01:46:59;86.07;;;54.47;;
26582;SDS011;14230;45.382;10.998;2023-04-01T01:49:27;86.43;;;54.42;;
26582;SDS011;14230;45.382;10.998;2023-04-01T01:51:57;81.75;;;52.05;;
26582;SDS011;14230;45.382;10.998;2023-04-01T01:54:25;97.03;;;54.25;;
26582;SDS011;14230;45.382;10.998;2023-04-01T01:56:55;98.22;;;58.38;;
26582;SDS011;14230;45.382;10.998;2023-04-01T01:59:35;99.45;;;58.03;;
26582;SDS011;14230;45.382;10.998;2023-04-01T02:02:06;112.43;;;66.65;;
26582;SDS011;14230;45.382;10.998;2023-04-01T02:04:39;125.47;;;71.50;;
26582;SDS011;14230;45.382;10.998;2023-04-01T02:07:15;139.30;;;70.97;;
26582;SDS011;14230;45.382;10.998;2023-04-01T02:09:48;121.82;;;70.65;;
26582;SDS011;14230;45.382;10.998;2023-04-01T02:12:17;124.35;;;75.88;;
26582;SDS011;14230;45.382;10.998;2023-04-01T02:17:27;118.47;;;72.00;;
26582;SDS011;14230;45.382;10.998;2023-04-01T02:22:38;110.35;;;67.88;;
26582;SDS011;14230;45.382;10.998;2023-04-01T02:25:13;125.45;;;73.00;;
26582;SDS011;14230;45.382;10.998;2023-04-01T02:27:45;118.47;;;68.40;;
26582;SDS011;14230;45.382;10.998;2023-04-01T02:30:14;120.57;;;72.15;;
26582;SDS011;14230;45.382;10.998;2023-04-01T02:32:44;122.63;;;69.82;;
26582;SDS011;14230;45.382;10.998;2023-04-01T02:35:13;108.72;;;67.82;;
26582;SDS011;14230;45.382;10.998;2023-04-01T02:37:43;110.35;;;66.95;;
26582;SDS011;14230;45.382;10.998;2023-04-01T02:40:13;113.20;;;67.97;;
26582;SDS011;14230;45.382;10.998;2023-04-01T02:42:41;116.13;;;68.18;;
26582;SDS011;14230;45.382;10.998;2023-04-01T02:45:09;108.25;;;66.10;;
26582;SDS011;14230;45.382;10.998;2023-04-01T02:47:37;116.85;;;67.50;;
26582;SDS011;14230;45.382;10.998;2023-04-01T02:50:06;110.55;;;68.65;;
26582;SDS011;14230;45.382;10.998;2023-04-01T02:52:34;115.13;;;67.38;;
26582;SDS011;14230;45.382;10.998;2023-04-01T02:55:02;122.13;;;69.55;;
26582;SDS011;14230;45.382;10.998;2023-04-01T02:57:31;119.85;;;64.47;;
26582;SDS011;14230;45.382;10.998;2023-04-01T02:59:59;120.40;;;64.45;;
26582;SDS011;14230;45.382;10.998;2023-04-01T03:02:26;114.25;;;63.40;;
26582;SDS011;14230;45.382;10.998;2023-04-01T03:04:54;105.63;;;63.15;;
26582;SDS011;14230;45.382;10.998;2023-04-01T03:07:21;114.60;;;65.68;;
26582;SDS011;14230;45.382;10.998;2023-04-01T03:09:48;110.03;;;62.13;;
26582;SDS011;14230;45.382;10.998;2023-04-01T03:12:17;109.25;;;62.45;;
26582;SDS011;14230;45.382;10.998;2023-04-01T03:14:49;98.78;;;60.30;;
26582;SDS011;14230;45.382;10.998;2023-04-01T03:17:16;113.20;;;63.38;;
26582;SDS011;14230;45.382;10.998;2023-04-01T03:19:44;98.82;;;60.63;;
26582;SDS011;14230;45.382;10.998;2023-04-01T03:22:13;95.45;;;55.28;;
26582;SDS011;14230;45.382;10.998;2023-04-01T03:24:40;96.90;;;58.15;;
26582;SDS011;14230;45.382;10.998;2023-04-01T03:27:07;102.28;;;60.45;;
26582;SDS011;14230;45.382;10.998;2023-04-01T03:29:35;109.75;;;62.10;;
26582;SDS011;14230;45.382;10.998;2023-04-01T03:32:03;111.57;;;64.38;;
26582;SDS011;14230;45.382;10.998;2023-04-01T03:34:30;110.95;;;62.95;;
26582;SDS011;14230;45.382;10.998;2023-04-01T03:36:58;105.55;;;62.05;;
26582;SDS011;14230;45.382;10.998;2023-04-01T03:39:26;107.82;;;61.28;;
26582;SDS011;14230;45.382;10.998;2023-04-01T03:41:54;89.43;;;55.75;;
26582;SDS011;14230;45.382;10.998;2023-04-01T03:44:22;96.47;;;59.50;;
26582;SDS011;14230;45.382;10.998;2023-04-01T03:46:52;85.80;;;54.70;;
26582;SDS011;14230;45.382;10.998;2023-04-01T03:49:19;85.65;;;53.78;;
26582;SDS011;14230;45.382;10.998;2023-04-01T03:51:47;81.30;;;54.13;;
26582;SDS011;14230;45.382;10.998;2023-04-01T03:54:14;79.85;;;53.15;;
26582;SDS011;14230;45.382;10.998;2023-04-01T03:56:43;78.78;;;50.70;;
26582;SDS011;14230;45.382;10.998;2023-04-01T03:59:11;82.32;;;50.80;;
26582;SDS011;14230;45.382;10.998;2023-04-01T04:01:38;78.93;;;50.08;;
26582;SDS011;14230;45.382;10.998;2023-04-01T04:04:06;79.63;;;49.42;;
26582;SDS011;14230;45.382;10.998;2023-04-01T04:06:34;77.55;;;49.08;;
26582;SDS011;14230;45.382;10.998;2023-04-01T04:09:01;74.93;;;49.47;;
26582;SDS011;14230;45.382;10.998;2023-04-01T04:11:30;74.10;;;47.67;;
26582;SDS011;14230;45.382;10.998;2023-04-01T04:13:59;75.70;;;46.03;;
26582;SDS011;14230;45.382;10.998;2023-04-01T04:16:27;71.75;;;45.17;;
26582;SDS011;14230;45.382;10.998;2023-04-01T04:18:58;77.93;;;47.70;;
26582;SDS011;14230;45.382;10.998;2023-04-01T04:21:26;78.00;;;46.90;;
26582;SDS011;14230;45.382;10.998;2023-04-01T04:23:53;69.90;;;46.75;;
26582;SDS011;14230;45.382;10.998;2023-04-01T04:26:21;78.57;;;49.58;;
26582;SDS011;14230;45.382;10.998;2023-04-01T04:28:56;77.43;;;46.22;;
26582;SDS011;14230;45.382;10.998;2023-04-01T04:31:25;77.95;;;51.42;;
26582;SDS011;14230;45.382;10.998;2023-04-01T04:33:55;80.35;;;48.80;;
26582;SDS011;14230;45.382;10.998;2023-04-01T04:36:23;91.35;;;53.10;;
26582;SDS011;14230;45.382;10.998;2023-04-01T04:38:51;82.53;;;50.90;;
26582;SDS011;14230;45.382;10.998;2023-04-01T04:41:19;79.53;;;50.53;;
26582;SDS011;14230;45.382;10.998;2023-04-01T04:43:54;81.55;;;50.67;;
26582;SDS011;14230;45.382;10.998;2023-04-01T04:46:24;86.43;;;53.90;;
26582;SDS011;14230;45.382;10.998;2023-04-01T04:49:03;81.57;;;52.25;;
26582;SDS011;14230;45.382;10.998;2023-04-01T04:51:30;93.60;;;55.60;;
26582;SDS011;14230;45.382;10.998;2023-04-01T04:54:01;83.80;;;54.50;;
26582;SDS011;14230;45.382;10.998;2023-04-01T04:56:43;92.15;;;55.55;;
26582;SDS011;14230;45.382;10.998;2023-04-01T04:59:11;95.40;;;55.70;;
26582;SDS011;14230;45.382;10.998;2023-04-01T05:01:44;87.00;;;54.97;;
26582;SDS011;14230;45.382;10.998;2023-04-01T05:04:12;92.07;;;55.17;;
26582;SDS011;14230;45.382;10.998;2023-04-01T05:06:41;93.55;;;57.80;;
26582;SDS011;14230;45.382;10.998;2023-04-01T05:09:09;89.38;;;55.83;;
26582;SDS011;14230;45.382;10.998;2023-04-01T05:11:37;93.07;;;57.85;;
26582;SDS011;14230;45.382;10.998;2023-04-01T05:14:04;93.68;;;56.20;;
26582;SDS011;14230;45.382;10.998;2023-04-01T05:16:33;97.72;;;57.00;;
26582;SDS011;14230;45.382;10.998;2023-04-01T05:19:00;113.43;;;56.95;;
26582;SDS011;14230;45.382;10.998;2023-04-01T05:21:28;88.30;;;54.40;;
26582;SDS011;14230;45.382;10.998;2023-04-01T05:23:56;85.57;;;52.28;;
26582;SDS011;14230;45.382;10.998;2023-04-01T05:26:24;88.28;;;51.97;;
26582;SDS011;14230;45.382;10.998;2023-04-01T05:28:52;85.03;;;51.92;;
26582;SDS011;14230;45.382;10.998;2023-04-01T05:31:20;88.00;;;52.28;;
26582;SDS011;14230;45.382;10.998;2023-04-01T05:33:48;77.60;;;49.10;;
26582;SDS011;14230;45.382;10.998;2023-04-01T05:36:16;80.38;;;50.38;;
26582;SDS011;14230;45.382;10.998;2023-04-01T05:38:44;82.40;;;48.72;;
26582;SDS011;14230;45.382;10.998;2023-04-01T05:41:16;82.43;;;51.28;;
26582;SDS011;14230;45.382;10.998;2023-04-01T05:43:45;83.13;;;50.15;;
26582;SDS011;14230;45.382;10.998;2023-04-01T05:46:35;70.00;;;45.78;;
26582;SDS011;14230;45.382;10.998;2023-04-01T05:49:14;70.88;;;42.88;;
26582;SDS011;14230;45.382;10.998;2023-04-01T05:51:41;69.50;;;43.95;;
26582;SDS011;14230;45.382;10.998;2023-04-01T05:54:09;74.05;;;42.20;;
26582;SDS011;14230;45.382;10.998;2023-04-01T05:56:37;67.38;;;43.38;;
26582;SDS011;14230;45.382;10.998;2023-04-01T05:59:05;77.05;;;45.05;;
26582;SDS011;14230;45.382;10.998;2023-04-01T06:01:32;85.45;;;43.53;;
26582;SDS011;14230;45.382;10.998;2023-04-01T06:04:00;62.35;;;39.97;;
26582;SDS011;14230;45.382;10.998;2023-04-01T06:06:28;57.28;;;35.53;;
26582;SDS011;14230;45.382;10.998;2023-04-01T06:18:10;64.88;;;38.28;;
26582;SDS011;14230;45.382;10.998;2023-04-01T06:24:11;58.13;;;37.53;;
26582;SDS011;14230;45.382;10.998;2023-04-01T06:27:01;59.28;;;38.10;;
26582;SDS011;14230;45.382;10.998;2023-04-01T06:35:24;57.38;;;34.38;;
26582;SDS011;14230;45.382;10.998;2023-04-01T06:52:39;43.80;;;31.25;;
26582;SDS011;14230;45.382;10.998;2023-04-01T06:55:47;46.40;;;30.17;;
26582;SDS011;14230;45.382;10.998;2023-04-01T06:58:36;38.33;;;28.85;;
26582;SDS011;14230;45.382;10.998;2023-04-01T07:01:11;37.65;;;28.42;;
26582;SDS011;14230;45.382;10.998;2023-04-01T07:06:26;43.63;;;33.38;;
26582;SDS011;14230;45.382;10.998;2023-04-01T07:09:02;46.53;;;32.45;;
26582;SDS011;14230;45.382;10.998;2023-04-01T07:11:53;50.03;;;34.00;;
26582;SDS011;14230;45.382;10.998;2023-04-01T07:15:01;45.45;;;33.28;;
26582;SDS011;14230;45.382;10.998;2023-04-01T07:17:39;50.17;;;32.47;;
26582;SDS011;14230;45.382;10.998;2023-04-01T07:22:58;42.83;;;28.67;;
26582;SDS011;14230;45.382;10.998;2023-04-01T07:25:45;38.90;;;26.48;;
26582;SDS011;14230;45.382;10.998;2023-04-01T07:28:31;29.48;;;23.88;;
26582;SDS011;14230;45.382;10.998;2023-04-01T07:36:45;33.55;;;26.40;;
26582;SDS011;14230;45.382;10.998;2023-04-01T07:44:29;34.92;;;27.58;;
26582;SDS011;14230;45.382;10.998;2023-04-01T07:59:02;31.63;;;24.58;;
26582;SDS011;14230;45.382;10.998;2023-04-01T08:02:23;27.40;;;23.17;;
26582;SDS011;14230;45.382;10.998;2023-04-01T08:14:02;29.10;;;22.75;;
26582;SDS011;14230;45.382;10.998;2023-04-01T08:22:57;24.40;;;19.77;;
26582;SDS011;14230;45.382;10.998;2023-04-01T08:25:42;22.08;;;17.63;;
26582;SDS011;14230;45.382;10.998;2023-04-01T08:28:57;22.38;;;18.02;;
26582;SDS011;14230;45.382;10.998;2023-04-01T08:34:28;23.13;;;19.30;;
26582;SDS011;14230;45.382;10.998;2023-04-01T08:37:06;23.60;;;18.10;;
26582;SDS011;14230;45.382;10.998;2023-04-01T08:39:38;24.08;;;18.40;;
26582;SDS011;14230;45.382;10.998;2023-04-01T08:51:03;23.90;;;18.30;;
26582;SDS011;14230;45.382;10.998;2023-04-01T09:07:43;29.45;;;18.90;;
26582;SDS011;14230;45.382;10.998;2023-04-01T09:10:29;25.05;;;18.65;;
26582;SDS011;14230;45.382;10.998;2023-04-01T09:52:38;20.75;;;14.98;;
26582;SDS011;14230;45.382;10.998;2023-04-01T10:10:47;16.40;;;13.38;;
26582;SDS011;14230;45.382;10.998;2023-04-01T10:31:40;5.05;;;3.53;;
26582;SDS011;14230;45.382;10.998;2023-04-01T10:34:26;6.32;;;3.53;;
26582;SDS011;14230;45.382;10.998;2023-04-01T11:07:36;6.53;;;2.38;;
26582;SDS011;14230;45.382;10.998;2023-04-01T11:36:20;3.30;;;2.60;;
26582;SDS011;14230;45.382;10.998;2023-04-01T11:49:02;8.18;;;3.38;;
26582;SDS011;14230;45.382;10.998;2023-04-01T11:51:54;5.65;;;3.40;;
26582;SDS011;14230;45.382;10.998;2023-04-01T11:54:42;5.18;;;3.90;;
26582;SDS011;14230;45.382;10.998;2023-04-01T12:14:27;5.10;;;4.55;;
26582;SDS011;14230;45.382;10.998;2023-04-01T12:22:43;6.13;;;4.32;;
26582;SDS011;14230;45.382;10.998;2023-04-01T12:36:26;7.63;;;3.50;;
26582;SDS011;14230;45.382;10.998;2023-04-01T12:50:49;7.43;;;4.43;;
26582;SDS011;14230;45.382;10.998;2023-04-01T13:15:32;7.82;;;4.22;;
26582;SDS011;14230;45.382;10.998;2023-04-01T13:18:23;8.85;;;4.85;;
26582;SDS011;14230;45.382;10.998;2023-04-01T13:24:03;8.82;;;5.05;;
26582;SDS011;14230;45.382;10.998;2023-04-01T13:26:28;6.50;;;4.32;;
26582;SDS011;14230;45.382;10.998;2023-04-01T13:32:05;7.80;;;4.50;;
26582;SDS011;14230;45.382;10.998;2023-04-01T13:43:38;4.03;;;3.63;;
26582;SDS011;14230;45.382;10.998;2023-04-01T13:46:22;15.45;;;3.72;;
26582;SDS011;14230;45.382;10.998;2023-04-01T14:08:14;6.63;;;3.17;;
26582;SDS011;14230;45.382;10.998;2023-04-01T14:19:19;3.97;;;2.35;;
26582;SDS011;14230;45.382;10.998;2023-04-01T14:22:13;3.70;;;2.00;;
26582;SDS011;14230;45.382;10.998;2023-04-01T14:33:43;15.93;;;4.05;;
26582;SDS011;14230;45.382;10.998;2023-04-01T14:47:58;4.50;;;2.00;;
26582;SDS011;14230;45.382;10.998;2023-04-01T14:50:45;1.83;;;1.60;;
26582;SDS011;14230;45.382;10.998;2023-04-01T14:55:55;1.95;;;1.48;;
26582;SDS011;14230;45.382;10.998;2023-04-01T14:58:58;1.33;;;1.23;;
26582;SDS011;14230;45.382;10.998;2023-04-01T15:01:34;1.55;;;1.45;;
26582;SDS011;14230;45.382;10.998;2023-04-01T15:07:02;5.95;;;3.65;;
26582;SDS011;14230;45.382;10.998;2023-04-01T15:15:23;8.50;;;4.85;;
26582;SDS011;14230;45.382;10.998;2023-04-01T15:21:26;5.45;;;4.38;;
26582;SDS011;14230;45.382;10.998;2023-04-01T15:26:58;6.63;;;5.10;;
26582;SDS011;14230;45.382;10.998;2023-04-01T15:29:54;5.18;;;4.35;;
26582;SDS011;14230;45.382;10.998;2023-04-01T15:38:25;6.78;;;4.38;;
26582;SDS011;14230;45.382;10.998;2023-04-01T15:41:02;6.10;;;4.82;;
26582;SDS011;14230;45.382;10.998;2023-04-01T15:43:40;6.57;;;4.90;;
26582;SDS011;14230;45.382;10.998;2023-04-01T16:05:37;1.77;;;1.40;;
26582;SDS011;14230;45.382;10.998;2023-04-01T16:08:38;3.03;;;1.60;;
26582;SDS011;14230;45.382;10.998;2023-04-01T16:19:22;3.30;;;1.40;;
26582;SDS011;14230;45.382;10.998;2023-04-01T16:22:23;2.85;;;1.90;;
26582;SDS011;14230;45.382;10.998;2023-04-01T16:28:03;3.42;;;1.60;;
26582;SDS011;14230;45.382;10.998;2023-04-01T16:31:05;3.85;;;1.50;;
26582;SDS011;14230;45.382;10.998;2023-04-01T16:36:09;4.47;;;2.08;;
26582;SDS011;14230;45.382;10.998;2023-04-01T16:41:49;4.05;;;1.48;;
26582;SDS011;14230;45.382;10.998;2023-04-01T16:47:27;5.72;;;1.90;;
26582;SDS011;14230;45.382;10.998;2023-04-01T16:50:13;4.80;;;2.55;;
26582;SDS011;14230;45.382;10.998;2023-04-01T16:52:58;6.03;;;1.90;;
26582;SDS011;14230;45.382;10.998;2023-04-01T16:58:36;2.35;;;1.55;;
26582;SDS011;14230;45.382;10.998;2023-04-01T17:01:24;5.50;;;1.63;;
26582;SDS011;14230;45.382;10.998;2023-04-01T17:04:24;2.47;;;1.40;;
26582;SDS011;14230;45.382;10.998;2023-04-01T17:20:50;8.82;;;4.78;;
26582;SDS011;14230;45.382;10.998;2023-04-01T17:23:37;7.55;;;5.03;;
26582;SDS011;14230;45.382;10.998;2023-04-01T17:29:05;11.00;;;3.90;;
26582;SDS011;14230;45.382;10.998;2023-04-01T17:31:49;8.90;;;4.45;;
26582;SDS011;14230;45.382;10.998;2023-04-01T17:34:27;7.85;;;4.97;;
26582;SDS011;14230;45.382;10.998;2023-04-01T17:39:39;13.35;;;5.80;;
26582;SDS011;14230;45.382;10.998;2023-04-01T17:45:21;10.63;;;6.47;;
26582;SDS011;14230;45.382;10.998;2023-04-01T17:50:53;20.75;;;9.60;;
26582;SDS011;14230;45.382;10.998;2023-04-01T17:59:25;17.15;;;8.98;;
26582;SDS011;14230;45.382;10.998;2023-04-01T18:15:50;20.30;;;11.00;;
26582;SDS011;14230;45.382;10.998;2023-04-01T18:21:19;23.42;;;10.82;;
26582;SDS011;14230;45.382;10.998;2023-04-01T18:24:06;16.75;;;11.00;;
26582;SDS011;14230;45.382;10.998;2023-04-01T18:26:49;21.38;;;12.02;;
26582;SDS011;14230;45.382;10.998;2023-04-01T18:35:00;19.27;;;12.10;;
26582;SDS011;14230;45.382;10.998;2023-04-01T18:37:57;22.65;;;12.80;;
26582;SDS011;14230;45.382;10.998;2023-04-01T18:43:30;19.50;;;13.15;;
26582;SDS011;14230;45.382;10.998;2023-04-01T18:51:57;19.88;;;13.07;;
26582;SDS011;14230;45.382;10.998;2023-04-01T18:54:32;18.33;;;12.15;;
26582;SDS011;14230;45.382;10.998;2023-04-01T18:57:16;22.65;;;12.18;;
26582;SDS011;14230;45.382;10.998;2023-04-01T19:00:32;20.48;;;13.73;;
26582;SDS011;14230;45.382;10.998;2023-04-01T19:11:04;23.95;;;14.57;;
26582;SDS011;14230;45.382;10.998;2023-04-01T19:13:51;32.17;;;16.02;;
26582;SDS011;14230;45.382;10.998;2023-04-01T19:16:48;27.42;;;15.93;;
26582;SDS011;14230;45.382;10.998;2023-04-01T19:54:41;24.17;;;16.40;;
26582;SDS011;14230;45.382;10.998;2023-04-01T20:08:19;39.17;;;23.65;;
26582;SDS011;14230;45.382;10.998;2023-04-01T20:11:01;29.95;;;20.58;;
26582;SDS011;14230;45.382;10.998;2023-04-01T20:16:13;52.75;;;25.58;;
26582;SDS011;14230;45.382;10.998;2023-04-01T20:21:31;40.60;;;22.58;;
26582;SDS011;14230;45.382;10.998;2023-04-01T20:24:14;39.33;;;22.48;;
26582;SDS011;14230;45.382;10.998;2023-04-01T20:26:46;55.83;;;30.08;;
26582;SDS011;14230;45.382;10.998;2023-04-01T20:32:24;49.13;;;29.10;;
26582;SDS011;14230;45.382;10.998;2023-04-01T20:40:49;61.55;;;32.90;;
26582;SDS011;14230;45.382;10.998;2023-04-01T20:43:33;40.90;;;22.13;;
26582;SDS011;14230;45.382;10.998;2023-04-01T20:52:17;44.17;;;24.38;;
26582;SDS011;14230;45.382;10.998;2023-04-01T20:55:16;40.28;;;22.40;;
26582;SDS011;14230;45.382;10.998;2023-04-01T20:58:20;59.72;;;30.00;;
26582;SDS011;14230;45.382;10.998;2023-04-01T21:06:33;52.25;;;23.70;;
26582;SDS011;14230;45.382;10.998;2023-04-01T21:12:15;32.08;;;20.00;;
26582;SDS011;14230;45.382;10.998;2023-04-01T21:29:33;134.35;;;70.65;;
26582;SDS011;14230;45.382;10.998;2023-04-01T21:32:30;42.75;;;26.55;;
26582;SDS011;14230;45.382;10.998;2023-04-01T21:38:01;76.75;;;48.38;;
26582;SDS011;14230;45.382;10.998;2023-04-01T21:40:53;70.75;;;43.75;;
26582;SDS011;14230;45.382;10.998;2023-04-01T21:44:06;60.97;;;33.55;;
26582;SDS011;14230;45.382;10.998;2023-04-01T21:49:38;46.95;;;32.50;;
26582;SDS011;14230;45.382;10.998;2023-04-01T22:09:30;37.92;;;27.38;;
26582;SDS011;14230;45.382;10.998;2023-04-01T22:15:09;43.80;;;26.25;;
26582;SDS011;14230;45.382;10.998;2023-04-01T22:17:55;45.13;;;26.80;;
26582;SDS011;14230;45.382;10.998;2023-04-01T22:20:33;42.95;;;26.38;;
26582;SDS011;14230;45.382;10.998;2023-04-01T22:26:09;45.80;;;27.15;;
26582;SDS011;14230;45.382;10.998;2023-04-01T22:28:58;41.45;;;27.05;;
26582;SDS011;14230;45.382;10.998;2023-04-01T22:32:07;43.37;;;26.70;;
26582;SDS011;14230;45.382;10.998;2023-04-01T22:40:54;43.05;;;28.42;;
26582;SDS011;14230;45.382;10.998;2023-04-01T22:46:21;47.55;;;29.70;;
26582;SDS011;14230;45.382;10.998;2023-04-01T22:51:49;58.35;;;30.50;;
26582;SDS011;14230;45.382;10.998;2023-04-01T22:54:54;54.50;;;32.00;;
26582;SDS011;14230;45.382;10.998;2023-04-01T22:57:36;51.97;;;29.77;;
26582;SDS011;14230;45.382;10.998;2023-04-01T23:00:16;52.97;;;31.70;;
26582;SDS011;14230;45.382;10.998;2023-04-01T23:05:27;50.10;;;30.83;;
26582;SDS011;14230;45.382;10.998;2023-04-01T23:08:06;47.75;;;31.02;;
26582;SDS011;14230;45.382;10.998;2023-04-01T23:10:56;52.13;;;31.98;;
26582;SDS011;14230;45.382;10.998;2023-04-01T23:13:34;47.47;;;31.17;;
26582;SDS011;14230;45.382;10.998;2023-04-01T23:16:10;51.83;;;30.52;;
26582;SDS011;14230;45.382;10.998;2023-04-01T23:21:40;50.90;;;29.80;;
26582;SDS011;14230;45.382;10.998;2023-04-01T23:29:52;46.83;;;29.42;;
26582;SDS011;14230;45.382;10.998;2023-04-01T23:32:23;50.42;;;30.42;;
26582;SDS011;14230;45.382;10.998;2023-04-01T23:34:58;52.65;;;31.42;;
26582;SDS011;14230;45.382;10.998;2023-04-01T23:37:27;54.40;;;30.45;;
26582;SDS011;14230;45.382;10.998;2023-04-01T23:39:57;48.97;;;30.00;;
26582;SDS011;14230;45.382;10.998;2023-04-01T23:42:32;51.85;;;31.17;;
26582;SDS011;14230;45.382;10.998;2023-04-01T23:47:47;47.50;;;30.73;;
26582;SDS011;14230;45.382;10.998;2023-04-01T23:50:20;52.40;;;30.85;;
26582;SDS011;14230;45.382;10.998;2023-04-01T23:55:40;50.35;;;32.45;;
26582;SDS011;14230;45.382;10.998;2023-04-01T23:58:18;58.30;;;30.80;;
